Antoine, Arkansas
Current Conditions -  °F | °C
As of 9:06 PM on Saturday 25 Oct 2014 (Local Time) from KADF Reporting Station
Haze Haze  
Wind Chill: 64°   Ceiling: Unl
Heat Index: 64°   Visibility: 1.2mi
Dew Point: 64°   Wind: 0mph
Humidity: 100%   Direction: NA
Pressure: 30.05"   Gusts: NA
Location:  34.04°N, 93.42°W
Report Text: KADF 260206Z AUTO 00000KT 1 1/4SM BR CLR 18/18 A3005 RMK AO2
Loading
Personal Weather Stations






























Interactive Weather Map New forecast layout! Learn more

10-Day Weather Forecast

Advertisements
Track Severe Weather on mobile